Time;durP1;ratioP1;P1;durP2;ratioP2;P2;SDS_P1;SDS_P2;PMS_P1;PMS_P2;Temp;Humidity;BMP_temperature;BMP_pressure;BME280_temperature;BME280_humidity;BME280_pressure;Samples;Min_cycle;Max_cycle;Signal;HPM_P1;HPM_P2
2023/06/14 00:01:45;;;;;;;6.05;5.45;;;;;;;20.68;41.34;101152.44;3586481;39;20055;-69
2023/06/14 00:04:12;;;;;;;9.50;5.55;;;;;;;20.67;41.91;101158.91;3589796;39;20309;-70
2023/06/14 00:06:38;;;;;;;7.35;5.72;;;;;;;20.63;41.88;101156.50;3589966;39;20283;-70
2023/06/14 00:09:04;;;;;;;9.30;5.80;;;;;;;20.07;41.76;101072.81;3584522;39;20103;-70
2023/06/14 00:11:31;;;;;;;6.05;5.40;;;;;;;20.55;42.27;101161.88;3584218;39;20374;-70
2023/06/14 00:13:57;;;;;;;5.82;5.18;;;;;;;20.51;42.21;101163.16;3583583;39;20103;-70
2023/06/14 00:16:24;;;;;;;8.90;5.97;;;;;;;20.27;42.05;101128.19;3585673;39;20066;-70
2023/06/14 00:18:51;;;;;;;7.75;5.75;;;;;;;20.42;42.23;101158.56;3589420;39;20059;-69
2023/06/14 00:21:17;;;;;;;9.90;8.35;;;;;;;20.38;42.22;101166.22;3590096;39;20111;-70
2023/06/14 00:23:43;;;;;;;9.68;7.05;;;;;;;20.33;42.02;101170.41;3588835;39;20060;-69
2023/06/14 00:26:09;;;;;;;9.18;7.10;;;;;;;20.31;42.60;101181.47;3586191;39;20410;-69
2023/06/14 00:28:34;;;;;;;9.13;6.78;;;;;;;20.24;43.17;101172.19;3590978;39;20134;-69
2023/06/14 00:31:00;;;;;;;8.23;6.15;;;;;;;20.19;42.81;101171.75;3585046;39;20634;-69
2023/06/14 00:33:25;;;;;;;8.23;5.93;;;;;;;20.17;42.33;101168.28;3584485;39;20060;-69
2023/06/14 00:35:53;;;;;;;9.05;6.05;;;;;;;20.14;41.72;101166.75;3583245;39;20054;-66
2023/06/14 00:38:20;;;;;;;6.78;5.70;;;;;;;20.13;43.01;101170.47;3583996;39;20415;-66
2023/06/14 00:40:46;;;;;;;9.18;5.25;;;;;;;20.09;43.08;101165.47;3587334;39;20124;-67
2023/06/14 00:43:12;;;;;;;7.32;5.78;;;;;;;19.98;42.75;101163.78;3586954;39;20256;-67
2023/06/14 00:45:38;;;;;;;10.88;6.55;;;;;;;20.01;43.00;101174.38;3585197;39;20052;-67
2023/06/14 00:48:07;;;;;;;8.88;6.53;;;;;;;19.95;42.23;101175.00;3586728;39;20333;-65
2023/06/14 00:50:34;;;;;;;8.93;6.47;;;;;;;19.90;42.32;101171.84;3585846;39;20062;-65
2023/06/14 00:53:01;;;;;;;6.72;5.93;;;;;;;19.86;42.75;101170.41;3582353;39;20072;-66
2023/06/14 00:55:27;;;;;;;8.05;6.43;;;;;;;19.83;42.09;101176.16;3584707;39;20074;-65
2023/06/14 00:57:55;;;;;;;8.85;5.55;;;;;;;19.63;42.50;101150.72;3584804;39;20481;-65
2023/06/14 01:00:21;;;;;;;6.05;5.05;;;;;;;19.78;42.62;101178.47;3585416;39;20549;-65
2023/06/14 01:02:49;;;;;;;9.30;5.57;;;;;;;19.70;42.58;101169.16;3586247;39;20239;-66
2023/06/14 01:05:16;;;;;;;6.78;5.03;;;;;;;19.42;43.14;101129.97;3582961;39;20059;-66
2023/06/14 01:08:00;;;;;;;5.68;4.85;;;;;;;19.65;43.25;101176.03;3582073;39;20126;-65
2023/06/14 01:10:52;;;;;;;7.90;4.90;;;;;;;19.57;42.22;101175.84;3583860;39;20402;-66
2023/06/14 01:13:33;;;;;;;7.38;5.00;;;;;;;19.40;42.47;101159.22;3582909;39;20072;-66
2023/06/14 01:16:01;;;;;;;5.68;4.80;;;;;;;19.47;43.18;101174.03;3586448;39;20473;-65
2023/06/14 01:18:29;;;;;;;6.72;4.60;;;;;;;19.46;42.26;101176.88;3589799;39;20378;-66
2023/06/14 01:20:55;;;;;;;6.60;4.90;;;;;;;19.41;43.14;101176.44;3586935;39;20058;-65
2023/06/14 01:23:23;;;;;;;5.72;4.75;;;;;;;19.38;42.88;101171.31;3587909;39;20083;-65
2023/06/14 01:25:52;;;;;;;6.22;4.57;;;;;;;19.33;41.61;101176.31;3585124;39;20082;-66
2023/06/14 01:28:21;;;;;;;7.55;4.80;;;;;;;19.33;42.59;101173.59;3581534;39;20056;-66
2023/06/14 01:30:53;;;;;;;7.15;4.70;;;;;;;19.25;42.55;101177.91;3585483;39;20411;-66
2023/06/14 01:33:22;;;;;;;8.27;4.93;;;;;;;19.22;41.81;101167.28;3585489;39;20402;-66
2023/06/14 01:35:50;;;;;;;6.55;4.43;;;;;;;19.18;41.88;101174.00;3584820;39;20410;-66
2023/06/14 01:38:22;;;;;;;5.18;4.55;;;;;;;19.18;41.67;101171.28;3583380;39;20150;-66
2023/06/14 01:40:50;;;;;;;5.57;4.28;;;;;;;19.14;42.05;101175.28;3584988;39;20047;-65
2023/06/14 01:43:19;;;;;;;5.32;4.45;;;;;;;19.09;42.29;101171.25;3585590;39;20055;-65
2023/06/14 01:45:48;;;;;;;8.18;4.97;;;;;;;19.02;41.30;101169.09;3582717;39;20085;-67
2023/06/14 01:48:14;;;;;;;5.78;4.68;;;;;;;19.05;41.78;101170.69;3583186;39;20063;-66
2023/06/14 01:50:40;;;;;;;7.15;4.75;;;;;;;18.99;41.25;101169.38;3585209;39;20052;-65
2023/06/14 01:53:09;;;;;;;5.97;4.70;;;;;;;18.97;41.69;101165.97;3581152;40;20065;-66
2023/06/14 01:55:37;;;;;;;6.28;4.22;;;;;;;18.96;41.18;101163.34;3585522;39;20128;-66
2023/06/14 01:58:04;;;;;;;5.47;4.40;;;;;;;18.91;41.04;101171.97;3583627;39;20051;-66
2023/06/14 02:00:30;;;;;;;7.57;5.03;;;;;;;18.91;41.72;101163.78;3581160;39;20123;-65
2023/06/14 02:02:56;;;;;;;6.57;4.80;;;;;;;18.87;42.04;101164.19;3583738;39;20588;-65
2023/06/14 02:05:21;;;;;;;7.55;4.85;;;;;;;18.87;41.51;101173.25;3584426;39;20067;-67
2023/06/14 02:07:47;;;;;;;7.13;4.60;;;;;;;18.85;41.89;101172.53;3588285;39;20195;-66
2023/06/14 02:10:13;;;;;;;6.43;5.00;;;;;;;18.81;41.71;101171.09;3587993;39;20061;-67
2023/06/14 02:12:39;;;;;;;6.88;4.97;;;;;;;18.76;42.13;101168.78;3584426;39;20499;-67
2023/06/14 02:15:06;;;;;;;8.32;4.68;;;;;;;18.70;41.49;101166.56;3583815;39;20052;-67
2023/06/14 02:17:31;;;;;;;7.25;4.57;;;;;;;18.66;42.54;101170.59;3582547;39;20044;-66
2023/06/14 02:19:57;;;;;;;7.28;4.93;;;;;;;18.64;42.51;101171.72;3582099;39;20370;-66
2023/06/14 02:22:23;;;;;;;6.40;4.70;;;;;;;18.60;41.98;101171.13;3584974;39;20067;-65
2023/06/14 02:24:48;;;;;;;7.05;4.45;;;;;;;18.51;42.34;101159.19;3583149;39;20094;-66
2023/06/14 02:27:14;;;;;;;5.35;4.68;;;;;;;18.45;42.08;101161.63;3584455;39;20056;-65
2023/06/14 02:29:40;;;;;;;8.75;4.60;;;;;;;18.45;42.20;101162.47;3585583;39;20056;-66
2023/06/14 02:32:07;;;;;;;7.38;5.07;;;;;;;18.47;42.08;101175.97;3584186;39;20064;-66
2023/06/14 02:34:33;;;;;;;7.07;4.95;;;;;;;18.45;42.14;101180.69;3580156;40;20116;-65
2023/06/14 02:37:00;;;;;;;5.47;4.55;;;;;;;18.43;42.66;101179.97;3570909;39;20052;-66
2023/06/14 02:39:26;;;;;;;6.47;4.53;;;;;;;18.41;42.82;101177.38;3586003;39;20122;-66
2023/06/14 02:41:51;;;;;;;6.85;5.07;;;;;;;18.38;42.83;101177.66;3583706;39;20059;-64
2023/06/14 02:44:28;;;;;;;6.43;4.50;;;;;;;18.36;42.84;101190.50;3583817;39;20075;-65
2023/06/14 02:46:55;;;;;;;5.95;4.55;;;;;;;18.23;43.08;101177.13;3585154;39;20055;-64
2023/06/14 02:49:22;;;;;;;6.78;4.70;;;;;;;18.25;43.37;101182.47;3584361;39;20095;-66
2023/06/14 02:51:48;;;;;;;6.80;4.35;;;;;;;18.23;42.72;101187.16;3574404;39;20047;-66
2023/06/14 02:54:13;;;;;;;7.80;5.13;;;;;;;18.03;43.49;101156.28;3584279;39;20064;-65
2023/06/14 02:56:40;;;;;;;5.00;4.35;;;;;;;18.20;43.69;101190.16;3583543;39;20129;-66
2023/06/14 02:59:07;;;;;;;7.15;4.38;;;;;;;18.14;43.14;101187.97;3582147;39;20132;-66
2023/06/14 03:01:40;;;;;;;5.53;3.90;;;;;;;18.03;43.77;101173.47;3581670;39;20326;-65
2023/06/14 03:04:07;;;;;;;5.25;4.43;;;;;;;18.07;42.99;101184.94;3583891;39;20093;-66
2023/06/14 03:06:33;;;;;;;6.43;4.50;;;;;;;18.02;43.91;101185.34;3587428;39;20767;-67
2023/06/14 03:09:00;;;;;;;7.53;4.65;;;;;;;18.01;43.77;101185.47;3582983;39;20056;-67
2023/06/14 03:11:27;;;;;;;8.35;4.95;;;;;;;17.28;44.47;101068.50;3585722;39;20085;-67
2023/06/14 03:13:53;;;;;;;7.82;5.30;;;;;;;18.02;43.33;101200.81;3581637;39;20177;-66
2023/06/14 03:16:21;;;;;;;8.60;4.90;;;;;;;18.04;43.29;101206.97;3580960;39;20073;-67
2023/06/14 03:18:50;;;;;;;8.18;4.80;;;;;;;18.02;44.13;101203.53;3583451;39;20528;-69
2023/06/14 03:21:16;;;;;;;5.38;4.38;;;;;;;17.90;44.00;101185.56;3588420;39;20051;-70
2023/06/14 03:23:43;;;;;;;6.25;4.38;;;;;;;17.98;43.96;101207.50;3589157;39;20421;-68
2023/06/14 03:26:13;;;;;;;8.70;4.35;;;;;;;17.92;43.96;101206.19;3582685;39;20205;-68
2023/06/14 03:28:40;;;;;;;7.22;4.40;;;;;;;17.89;44.39;101202.84;3584567;39;20303;-69
2023/06/14 03:31:06;;;;;;;10.38;4.63;;;;;;;17.84;44.93;101204.13;3583780;39;20546;-68
2023/06/14 03:33:32;;;;;;;5.25;4.50;;;;;;;17.84;44.67;101211.44;3582483;39;20074;-69
2023/06/14 03:35:57;;;;;;;6.82;4.50;;;;;;;17.78;45.25;101207.38;3582752;39;20051;-69
2023/06/14 03:38:23;;;;;;;6.57;4.47;;;;;;;17.75;45.59;101209.47;3582226;39;20064;-69
2023/06/14 03:40:49;;;;;;;6.07;3.90;;;;;;;17.74;45.45;101213.19;3582856;39;20077;-69
2023/06/14 03:43:14;;;;;;;5.60;4.35;;;;;;;17.71;45.65;101211.59;3572157;40;20067;-68
2023/06/14 03:45:40;;;;;;;13.57;4.70;;;;;;;17.69;45.63;101202.69;3584385;39;20055;-69
2023/06/14 03:48:08;;;;;;;5.63;4.20;;;;;;;17.69;45.53;101213.56;3585282;39;20051;-69
2023/06/14 03:50:33;;;;;;;5.93;4.22;;;;;;;17.52;45.85;101190.56;3583454;39;20062;-70
2023/06/14 03:53:01;;;;;;;4.70;3.90;;;;;;;17.69;46.40;101219.00;3582234;39;20069;-70
2023/06/14 03:55:27;;;;;;;8.20;4.20;;;;;;;17.62;46.15;101204.22;3580941;39;20088;-70
2023/06/14 03:57:53;;;;;;;8.18;4.40;;;;;;;17.69;45.86;101213.56;3581169;39;20052;-70
2023/06/14 04:00:18;;;;;;;6.03;4.40;;;;;;;17.64;45.61;101204.97;3581906;39;20338;-71
2023/06/14 04:02:44;;;;;;;7.38;4.22;;;;;;;17.50;46.19;101186.22;3581880;39;20537;-70
2023/06/14 04:05:10;;;;;;;5.93;3.83;;;;;;;17.71;46.21;101222.47;3582766;39;20059;-70
2023/06/14 04:07:44;;;;;;;6.63;4.57;;;;;;;17.71;45.73;101222.47;3584443;39;20052;-69
2023/06/14 04:10:11;;;;;;;6.72;4.70;;;;;;;17.69;45.89;101229.88;3581214;39;20484;-69
2023/06/14 04:12:37;;;;;;;5.90;4.72;;;;;;;17.68;46.86;101225.44;3581696;39;20059;-69
2023/06/14 04:15:05;;;;;;;8.70;4.60;;;;;;;17.66;46.03;101221.97;3584097;39;20418;-69
2023/06/14 04:17:35;;;;;;;6.95;4.65;;;;;;;17.71;46.02;101229.75;3583344;39;20044;-69
2023/06/14 04:20:04;;;;;;;6.57;4.70;;;;;;;17.74;46.13;101233.09;3585456;39;20430;-69
2023/06/14 04:22:30;;;;;;;6.30;4.70;;;;;;;16.54;45.76;101029.56;3585771;39;20064;-70
2023/06/14 04:24:57;;;;;;;6.30;4.80;;;;;;;17.07;46.05;101124.69;3584044;39;20059;-69
2023/06/14 04:27:25;;;;;;;8.60;4.60;;;;;;;17.77;46.56;101241.00;3573523;40;20075;-69
2023/06/14 04:29:59;;;;;;;5.53;4.60;;;;;;;17.80;45.97;101235.31;3584981;39;20052;-69
2023/06/14 04:32:33;;;;;;;6.70;4.40;;;;;;;17.77;46.18;101232.00;3583406;39;20058;-69
2023/06/14 04:35:02;;;;;;;43.83;36.85;;;;;;;17.78;46.21;101234.56;3582672;39;20068;-69
2023/06/14 04:37:29;;;;;;;6.85;5.18;;;;;;;17.78;45.69;101234.56;3580878;39;20269;-69
2023/06/14 04:39:55;;;;;;;7.25;5.05;;;;;;;17.83;45.63;101239.63;3585244;39;20095;-69
2023/06/14 04:42:24;;;;;;;6.72;4.43;;;;;;;17.82;45.14;101238.78;3570445;39;20060;-69
2023/06/14 04:44:55;;;;;;;7.82;4.80;;;;;;;17.70;45.86;101219.91;3584321;39;20081;-70
2023/06/14 04:47:21;;;;;;;8.20;4.72;;;;;;;17.82;46.44;101244.22;3581626;39;20059;-69
2023/06/14 04:49:46;;;;;;;8.30;5.03;;;;;;;17.82;45.92;101246.94;3583838;39;20678;-69
2023/06/14 04:52:13;;;;;;;9.15;5.10;;;;;;;17.91;46.03;101249.84;3582311;39;20067;-70
2023/06/14 04:54:43;;;;;;;6.43;4.78;;;;;;;17.96;45.93;101250.31;3586244;39;20067;-69
2023/06/14 04:57:13;;;;;;;6.45;5.03;;;;;;;18.01;45.27;101245.31;3569599;40;20092;-70
2023/06/14 04:59:39;;;;;;;5.13;4.60;;;;;;;18.05;46.35;101254.97;3580781;39;20067;-69
2023/06/14 05:02:06;;;;;;;7.40;4.78;;;;;;;18.08;45.92;101252.84;3581964;39;20658;-69
2023/06/14 05:04:32;;;;;;;6.85;4.57;;;;;;;18.17;46.83;101259.31;3582482;39;20290;-69
2023/06/14 05:06:58;;;;;;;7.88;4.75;;;;;;;18.28;46.19;101264.69;3584306;39;20056;-69
2023/06/14 05:09:23;;;;;;;5.97;4.38;;;;;;;17.65;46.48;101141.41;3584085;39;20391;-69
2023/06/14 05:11:50;;;;;;;7.13;4.72;;;;;;;18.39;46.14;101254.72;3589282;39;20063;-69
2023/06/14 05:14:17;;;;;;;8.00;4.65;;;;;;;18.40;46.23;101251.03;3585281;39;20091;-69
2023/06/14 05:16:42;;;;;;;6.00;4.50;;;;;;;18.46;46.63;101258.66;3581777;39;20288;-69
2023/06/14 05:19:10;;;;;;;6.47;4.50;;;;;;;18.35;46.00;101226.06;3585601;39;20062;-69
2023/06/14 05:21:37;;;;;;;5.47;4.38;;;;;;;18.59;45.76;101267.44;3586795;39;20064;-69
2023/06/14 05:24:03;;;;;;;4.88;3.83;;;;;;;18.63;45.75;101268.03;3587279;39;20394;-69
2023/06/14 05:26:29;;;;;;;6.90;4.30;;;;;;;18.44;45.12;101226.09;3584655;39;20063;-69
2023/06/14 05:29:00;;;;;;;7.97;4.63;;;;;;;18.71;46.14;101266.34;3586274;39;20304;-70
2023/06/14 05:31:26;;;;;;;6.00;4.05;;;;;;;18.75;46.19;101265.09;3576391;39;20133;-70
2023/06/14 05:33:52;;;;;;;4.97;4.47;;;;;;;18.85;45.31;101269.72;3577675;39;20043;-70
2023/06/14 05:36:19;;;;;;;4.70;4.30;;;;;;;18.91;44.82;101266.47;3587435;39;20060;-70
2023/06/14 05:38:45;;;;;;;5.05;4.20;;;;;;;18.96;44.98;101261.44;3581934;39;20066;-68
2023/06/14 05:41:11;;;;;;;7.00;4.50;;;;;;;18.83;45.08;101239.91;3583513;39;20048;-69
2023/06/14 05:43:36;;;;;;;5.40;4.35;;;;;;;19.04;45.04;101272.53;3586957;39;20059;-69
2023/06/14 05:46:02;;;;;;;11.27;7.20;;;;;;;18.44;45.07;101165.34;3583255;39;20504;-69
2023/06/14 05:48:29;;;;;;;9.70;5.78;;;;;;;19.12;44.83;101274.53;3586387;39;20055;-68
2023/06/14 05:50:55;;;;;;;6.90;4.50;;;;;;;19.22;44.87;101281.75;3585254;39;20380;-70
2023/06/14 05:53:21;;;;;;;9.38;4.68;;;;;;;19.33;44.40;101272.59;3582987;40;20078;-69
2023/06/14 05:55:46;;;;;;;5.20;4.28;;;;;;;19.40;44.25;101272.88;3586068;39;20070;-70
2023/06/14 05:58:13;;;;;;;8.93;4.78;;;;;;;19.48;44.69;101286.69;3586057;39;20573;-70
2023/06/14 06:00:39;;;;;;;5.30;3.67;;;;;;;19.58;44.74;101279.38;3581408;39;20120;-69
2023/06/14 06:03:07;;;;;;;8.77;4.85;;;;;;;19.66;44.47;101278.66;3583123;39;20457;-69
2023/06/14 06:05:33;;;;;;;5.57;4.53;;;;;;;19.81;43.54;101281.84;3583803;39;20132;-70
2023/06/14 06:08:00;;;;;;;10.18;5.10;;;;;;;19.92;43.69;101285.28;3584297;39;20803;-71
2023/06/14 06:10:25;;;;;;;9.02;4.15;;;;;;;19.87;43.54;101268.47;3583595;39;20401;-70
2023/06/14 06:12:52;;;;;;;6.90;4.30;;;;;;;19.86;43.18;101241.34;3582533;39;20056;-70
2023/06/14 06:15:18;;;;;;;6.95;4.13;;;;;;;20.25;42.56;101285.81;3582680;39;20063;-70
2023/06/14 06:17:44;;;;;;;7.70;3.88;;;;;;;20.41;42.36;101291.53;3572893;39;20070;-70
2023/06/14 06:20:11;;;;;;;9.27;4.10;;;;;;;20.25;42.41;101258.53;3584519;40;20716;-70
2023/06/14 06:22:38;;;;;;;5.20;3.88;;;;;;;20.60;42.24;101301.56;3584652;40;20283;-70
2023/06/14 06:25:04;;;;;;;7.55;3.85;;;;;;;20.80;42.12;101302.34;3582931;40;20058;-70
2023/06/14 06:27:30;;;;;;;6.95;4.20;;;;;;;20.92;42.34;101313.97;3581094;40;20044;-70
2023/06/14 06:29:55;;;;;;;5.63;4.28;;;;;;;21.06;40.54;101313.50;3579096;39;20056;-69
2023/06/14 06:32:21;;;;;;;7.32;4.18;;;;;;;21.22;40.75;101317.44;3585640;40;20099;-70
2023/06/14 06:34:47;;;;;;;4.72;3.55;;;;;;;21.37;41.14;101307.72;3582145;40;20060;-70
2023/06/14 06:37:13;;;;;;;7.82;3.90;;;;;;;21.55;40.96;101325.03;3580855;40;20044;-71
2023/06/14 06:39:39;;;;;;;7.13;3.97;;;;;;;21.39;40.67;101264.69;3584888;40;20064;-71
2023/06/14 06:42:06;;;;;;;5.88;3.53;;;;;;;21.86;40.18;101332.88;3582952;39;20075;-72
2023/06/14 06:44:32;;;;;;;8.38;4.00;;;;;;;21.77;39.99;101281.81;3580152;40;20433;-70
2023/06/14 06:46:59;;;;;;;9.55;3.92;;;;;;;22.17;39.81;101327.00;3581743;40;20513;-70
2023/06/14 06:49:25;;;;;;;5.63;4.00;;;;;;;22.37;39.63;101334.03;3581518;39;20048;-71
2023/06/14 06:52:05;;;;;;;8.90;3.88;;;;;;;22.48;38.61;101336.50;3581937;39;20308;-72
2023/06/14 06:54:32;;;;;;;6.45;3.50;;;;;;;22.61;38.73;101327.00;3584756;39;20063;-71
2023/06/14 06:56:58;;;;;;;5.22;3.60;;;;;;;22.72;38.92;101324.00;3582315;39;20382;-72
2023/06/14 06:59:24;;;;;;;5.43;3.33;;;;;;;22.35;37.64;101239.34;3584089;39;20055;-72
2023/06/14 07:01:50;;;;;;;5.50;3.70;;;;;;;23.03;38.02;101337.25;3572346;40;20967;-73
2023/06/14 07:04:16;;;;;;;6.97;3.67;;;;;;;23.14;37.41;101340.53;3582802;39;20132;-72
2023/06/14 07:06:43;;;;;;;12.40;3.97;;;;;;;23.19;37.40;101337.31;3583082;39;20059;-71
2023/06/14 07:09:12;;;;;;;7.00;3.70;;;;;;;23.30;38.30;101339.75;3581389;39;20110;-70
2023/06/14 07:11:39;;;;;;;5.05;3.33;;;;;;;23.27;37.08;101326.34;3581607;40;20051;-72
2023/06/14 07:14:06;;;;;;;6.22;3.90;;;;;;;23.47;36.29;101328.81;3584581;39;20099;-70
2023/06/14 07:16:32;;;;;;;4.30;3.53;;;;;;;23.73;36.87;101353.47;3580668;39;20124;-72
2023/06/14 07:18:58;;;;;;;6.07;3.47;;;;;;;23.83;36.91;101355.03;3580486;39;20141;-70
2023/06/14 07:21:25;;;;;;;5.60;3.45;;;;;;;23.95;36.58;101350.09;3581631;40;20060;-71
2023/06/14 07:23:52;;;;;;;6.10;3.70;;;;;;;24.06;36.30;101341.50;3580670;39;20089;-72
2023/06/14 07:26:18;;;;;;;4.43;3.50;;;;;;;24.19;35.96;101349.22;3580037;39;20084;-71
2023/06/14 07:28:44;;;;;;;4.13;3.40;;;;;;;24.37;35.80;101356.47;3578266;40;20485;-70
2023/06/14 07:31:10;;;;;;;5.00;3.33;;;;;;;24.48;35.44;101361.63;3578386;40;20064;-70
2023/06/14 07:33:36;;;;;;;4.95;3.30;;;;;;;24.64;35.46;101372.59;3578181;40;20056;-70
2023/06/14 07:36:02;;;;;;;5.88;3.40;;;;;;;24.70;35.42;101349.91;3580695;40;20051;-71
2023/06/14 07:38:28;;;;;;;6.63;3.30;;;;;;;24.86;33.76;101372.91;3581123;39;20052;-71
2023/06/14 07:40:54;;;;;;;6.65;3.10;;;;;;;24.88;34.02;101373.59;3578359;40;20065;-69
2023/06/14 07:43:19;;;;;;;3.47;2.97;;;;;;;25.03;33.82;101377.34;3585268;40;20518;-71
2023/06/14 07:45:45;;;;;;;6.63;3.15;;;;;;;24.44;33.91;101255.81;3581415;40;20223;-71
2023/06/14 07:48:11;;;;;;;6.10;3.20;;;;;;;25.26;33.68;101382.97;3577538;40;20391;-71
2023/06/14 07:50:37;;;;;;;5.65;3.20;;;;;;;25.30;33.89;101383.47;3577818;40;20064;-71
2023/06/14 07:53:02;;;;;;;7.30;3.30;;;;;;;25.41;32.71;101375.69;3578446;39;20361;-72
2023/06/14 07:55:28;;;;;;;5.38;3.20;;;;;;;25.52;33.51;101374.44;3579560;40;20071;-70
2023/06/14 07:57:54;;;;;;;5.68;3.58;;;;;;;25.37;33.10;101341.31;3581386;40;20295;-71
2023/06/14 08:00:20;;;;;;;7.85;3.00;;;;;;;25.80;32.83;101390.47;3578657;40;20357;-71
2023/06/14 08:02:46;;;;;;;5.15;3.10;;;;;;;25.90;32.54;101382.88;3576397;40;20068;-72
2023/06/14 08:05:12;;;;;;;5.25;3.25;;;;;;;26.05;32.56;101389.31;3580829;39;20056;-71
2023/06/14 08:07:40;;;;;;;4.00;2.80;;;;;;;26.03;32.68;101399.66;3581991;39;20442;-70
2023/06/14 08:10:07;;;;;;;5.32;2.63;;;;;;;26.07;30.80;101406.53;3580064;39;20433;-71
2023/06/14 08:12:34;;;;;;;6.25;2.70;;;;;;;26.05;30.78;101388.47;3582202;40;20060;-72
2023/06/14 08:15:00;;;;;;;10.52;4.40;;;;;;;25.72;30.46;101311.50;3578101;40;20469;-70
2023/06/14 08:17:26;;;;;;;6.15;3.17;;;;;;;26.29;30.65;101396.56;3578571;40;20504;-71
2023/06/14 08:19:57;;;;;;;7.25;3.80;;;;;;;26.37;30.93;101395.63;3577535;40;20044;-70
2023/06/14 08:22:24;;;;;;;6.63;3.13;;;;;;;26.21;30.26;101343.38;3578057;39;20040;-71
2023/06/14 08:24:50;;;;;;;5.10;2.72;;;;;;;26.46;30.20;101389.00;3578288;40;20567;-71
2023/06/14 08:27:16;;;;;;;7.18;2.70;;;;;;;26.47;30.16;101390.69;3581240;40;20059;-72
2023/06/14 08:29:42;;;;;;;6.32;2.95;;;;;;;26.42;30.41;101395.94;3578159;40;20060;-72
2023/06/14 08:32:08;;;;;;;4.22;2.70;;;;;;;26.48;30.40;101395.19;3578046;40;20284;-71
2023/06/14 08:34:33;;;;;;;7.97;2.97;;;;;;;26.50;31.63;101376.56;3577271;39;20086;-71
2023/06/14 08:36:59;;;;;;;6.03;2.55;;;;;;;26.73;31.36;101381.19;3581747;40;20486;-72
2023/06/14 08:39:24;;;;;;;9.45;2.60;;;;;;;26.89;30.35;101386.53;3581764;40;20149;-72
2023/06/14 08:41:52;;;;;;;6.00;2.65;;;;;;;27.03;29.10;101391.22;3572861;40;20056;-71
2023/06/14 08:44:18;;;;;;;4.63;2.40;;;;;;;27.24;29.49;101389.63;3579550;40;20137;-71
2023/06/14 08:46:45;;;;;;;2.92;2.40;;;;;;;27.20;28.63;101360.72;3585096;40;20080;-71
2023/06/14 08:49:12;;;;;;;5.15;2.45;;;;;;;27.50;28.68;101384.50;3582263;39;20054;-72
2023/06/14 08:51:40;;;;;;;7.50;2.40;;;;;;;27.65;28.26;101386.34;3580492;40;20494;-72
2023/06/14 08:54:07;;;;;;;3.70;2.30;;;;;;;27.79;28.68;101396.56;3581580;40;20108;-71
2023/06/14 08:56:33;;;;;;;4.03;2.30;;;;;;;27.77;28.73;101385.69;3580388;40;20139;-71
2023/06/14 08:59:06;;;;;;;5.43;2.60;;;;;;;27.79;27.34;101391.03;3582961;39;20351;-73
2023/06/14 09:01:36;;;;;;;5.13;2.30;;;;;;;28.00;27.67;101390.19;3580240;39;20048;-71
2023/06/14 09:04:05;;;;;;;5.78;2.47;;;;;;;28.05;27.69;101392.38;3584911;39;20048;-72
2023/06/14 09:06:32;;;;;;;6.10;2.42;;;;;;;27.97;27.95;101398.88;3584778;40;20454;-73
2023/06/14 09:08:58;;;;;;;5.20;2.10;;;;;;;28.02;27.95;101388.09;3578886;40;20100;-72
2023/06/14 09:11:25;;;;;;;3.35;2.25;;;;;;;28.12;27.52;101390.53;3583898;40;20429;-70
2023/06/14 09:13:51;;;;;;;5.03;2.55;;;;;;;28.15;27.07;101391.00;3582314;40;20082;-71
2023/06/14 09:16:17;;;;;;;4.78;2.05;;;;;;;28.30;26.33;101388.19;3578856;40;20332;-72
2023/06/14 09:18:50;;;;;;;4.72;2.05;;;;;;;28.55;26.33;101396.94;3582694;39;20553;-72
2023/06/14 09:21:17;;;;;;;5.13;2.03;;;;;;;28.68;24.92;101398.97;3580298;40;20116;-72
2023/06/14 09:23:47;;;;;;;7.35;2.10;;;;;;;28.68;25.17;101387.91;3579788;40;20061;-70
2023/06/14 09:26:17;;;;;;;2.30;1.83;;;;;;;28.80;24.67;101402.91;3580204;40;20082;-72
2023/06/14 09:28:49;;;;;;;6.20;2.42;;;;;;;28.82;24.46;101411.84;3579196;40;20087;-70
2023/06/14 09:31:20;;;;;;;3.90;1.58;;;;;;;28.77;22.98;101364.56;3583561;39;20050;-72
2023/06/14 09:33:49;;;;;;;1.80;1.70;;;;;;;28.93;23.45;101397.47;3578099;40;20426;-72
2023/06/14 09:36:22;;;;;;;5.10;2.10;;;;;;;29.06;23.06;101402.28;3577595;40;20056;-72
2023/06/14 09:39:00;;;;;;;1.85;1.70;;;;;;;29.21;23.00;101390.19;3580145;40;20056;-72
2023/06/14 09:41:40;;;;;;;1.70;1.60;;;;;;;29.23;21.99;101396.41;3578983;39;20421;-72
2023/06/14 09:44:11;;;;;;;5.97;1.90;;;;;;;29.47;21.80;101398.69;3578337;40;20060;-71
2023/06/14 09:46:37;;;;;;;2.25;1.55;;;;;;;29.49;22.63;101415.06;3581244;39;20126;-71
2023/06/14 09:49:05;;;;;;;2.97;1.50;;;;;;;29.55;21.45;101411.47;3578154;40;20521;-70
2023/06/14 09:51:31;;;;;;;2.97;1.42;;;;;;;29.37;22.71;101412.91;3581552;39;20063;-71
2023/06/14 09:54:06;;;;;;;3.42;1.27;;;;;;;29.53;21.47;101405.31;3576450;39;20401;-72
2023/06/14 09:56:43;;;;;;;2.17;1.20;;;;;;;29.49;21.97;101406.75;3579393;39;20126;-71
2023/06/14 09:59:13;;;;;;;8.18;1.50;;;;;;;29.59;21.57;101407.22;3579331;39;20069;-70
2023/06/14 10:01:44;;;;;;;2.17;1.42;;;;;;;29.74;21.77;101412.66;3578834;40;20279;-72
2023/06/14 10:04:11;;;;;;;6.43;1.90;;;;;;;30.00;21.54;101409.13;3582221;40;20131;-72
2023/06/14 10:06:45;;;;;;;1.50;1.40;;;;;;;29.77;22.60;101393.69;3579713;40;20303;-71
2023/06/14 10:09:12;;;;;;;1.88;1.40;;;;;;;29.86;21.69;101412.94;3579546;40;20418;-71
2023/06/14 10:11:43;;;;;;;2.30;1.42;;;;;;;29.92;22.16;101401.00;3581318;40;20399;-71
2023/06/14 10:14:12;;;;;;;2.65;1.40;;;;;;;29.79;21.43;101391.59;3579856;39;20139;-72
2023/06/14 10:17:09;;;;;;;5.82;1.60;;;;;;;29.63;22.06;101402.19;3581815;40;20452;-71
2023/06/14 10:20:26;;;;;;;3.20;1.60;;;;;;;29.68;22.34;101400.47;3577733;40;20302;-71
2023/06/14 10:23:21;;;;;;;1.83;1.55;;;;;;;29.81;22.26;101367.28;3563657;40;20056;-72
2023/06/14 10:25:56;;;;;;;3.05;1.50;;;;;;;30.23;21.24;101398.56;3577072;40;20625;-72
2023/06/14 10:28:23;;;;;;;2.67;2.42;;;;;;;30.25;21.45;101401.97;3578895;39;20063;-71
2023/06/14 10:31:08;;;;;;;1.58;1.48;;;;;;;30.23;22.19;101393.00;3578051;40;20060;-73
2023/06/14 10:33:50;;;;;;;1.58;1.33;;;;;;;30.48;22.46;101400.69;3577577;40;20060;-71
2023/06/14 10:36:21;;;;;;;3.42;1.83;;;;;;;30.52;21.91;101396.44;3577881;40;20063;-72
2023/06/14 10:39:17;;;;;;;1.55;1.45;;;;;;;30.44;22.92;101372.53;3579139;40;20064;-70
2023/06/14 10:41:55;;;;;;;1.90;1.45;;;;;;;30.67;21.79;101388.78;3581139;39;20070;-70
2023/06/14 10:44:20;;;;;;;4.47;1.45;;;;;;;30.82;20.56;101408.00;3576632;39;20048;-70
2023/06/14 10:46:52;;;;;;;3.80;1.90;;;;;;;30.90;20.94;101402.22;3582146;40;20433;-70
2023/06/14 10:49:43;;;;;;;1.83;1.63;;;;;;;31.01;20.11;101397.94;3581730;40;20064;-72
2023/06/14 10:52:18;;;;;;;3.03;1.45;;;;;;;31.06;21.16;101395.38;3579227;39;20096;-70
2023/06/14 10:55:24;;;;;;;2.92;1.88;;;;;;;30.98;20.83;101402.00;3577726;39;20137;-72
2023/06/14 10:57:58;;;;;;;2.13;1.42;;;;;;;31.13;21.84;101400.91;3578210;40;20059;-74
2023/06/14 11:00:27;;;;;;;3.17;1.90;;;;;;;31.02;21.27;101396.88;3581664;40;20376;-71
2023/06/14 11:03:43;;;;;;;1.77;1.65;;;;;;;31.16;21.71;101401.31;3579424;40;20056;-72
2023/06/14 11:06:15;;;;;;;1.73;1.60;;;;;;;31.24;22.17;101400.25;3579680;40;20339;-71
2023/06/14 11:09:08;;;;;;;3.58;1.98;;;;;;;31.37;20.01;101399.41;3578317;40;20052;-71
2023/06/14 11:11:38;;;;;;;3.42;2.08;;;;;;;31.53;20.93;101398.91;3582381;39;20055;-72
2023/06/14 11:14:04;;;;;;;1.90;1.50;;;;;;;31.49;20.13;101400.41;3578483;40;20391;-72
2023/06/14 11:16:33;;;;;;;2.03;1.83;;;;;;;31.59;20.44;101392.47;3577078;40;20073;-72
2023/06/14 11:19:04;;;;;;;2.60;1.50;;;;;;;31.39;20.62;101391.69;3581426;40;20165;-72
2023/06/14 11:21:31;;;;;;;2.08;1.88;;;;;;;31.20;20.29;101383.16;3580757;40;20082;-72
2023/06/14 11:23:57;;;;;;;3.40;1.92;;;;;;;31.29;21.65;101383.78;3577587;39;20064;-72
2023/06/14 11:26:28;;;;;;;3.38;1.42;;;;;;;31.31;21.22;101355.78;3577152;40;20480;-73
2023/06/14 11:28:59;;;;;;;3.08;1.80;;;;;;;31.60;21.42;101396.94;3577210;40;20106;-71
2023/06/14 11:31:26;;;;;;;2.55;1.65;;;;;;;31.46;21.03;101348.03;3577208;40;20048;-72